createdAt,value
2022-11-07T00:01:18.707Z,10.75
2022-11-07T00:03:45.551Z,10.13
2022-11-07T00:06:12.395Z,10.10
2022-11-07T00:08:39.116Z,10.82
2022-11-07T00:11:06.217Z,9.90
2022-11-07T00:13:32.992Z,9.70
2022-11-07T00:16:00.896Z,11.35
2022-11-07T00:18:27.527Z,10.00
2022-11-07T00:20:54.415Z,9.68
2022-11-07T00:23:21.079Z,10.73
2022-11-07T00:25:47.766Z,9.98
2022-11-07T00:28:14.325Z,10.40
2022-11-07T00:30:41.000Z,10.25
2022-11-07T00:33:07.636Z,10.32
2022-11-07T00:35:34.416Z,9.80
2022-11-07T00:38:01.115Z,9.70
2022-11-07T00:40:27.967Z,9.32
2022-11-07T00:42:54.538Z,9.52
2022-11-07T00:45:21.542Z,9.65
2022-11-07T00:47:48.196Z,9.27
2022-11-07T00:50:14.764Z,10.27
2022-11-07T00:52:41.678Z,9.02
2022-11-07T00:55:08.410Z,9.77
2022-11-07T00:57:35.033Z,8.70
2022-11-07T01:00:01.767Z,9.05
2022-11-07T01:02:28.461Z,9.00
2022-11-07T01:05:13.381Z,10.38
2022-11-07T01:07:40.085Z,8.48
2022-11-07T01:10:07.887Z,10.07
2022-11-07T01:12:35.448Z,8.70
2022-11-07T01:15:03.119Z,8.93
2022-11-07T01:17:29.811Z,8.52
2022-11-07T01:19:56.588Z,8.60
2022-11-07T01:22:23.120Z,8.35
2022-11-07T01:24:49.656Z,9.20
2022-11-07T01:27:19.073Z,7.68
2022-11-07T01:29:45.664Z,8.30
2022-11-07T01:32:12.363Z,8.38
2022-11-07T01:34:39.085Z,8.18
2022-11-07T01:37:05.680Z,7.80
2022-11-07T01:39:32.249Z,8.23
2022-11-07T01:41:58.919Z,8.38
2022-11-07T01:44:25.532Z,7.32
2022-11-07T01:46:55.877Z,7.68
2022-11-07T01:49:37.650Z,7.15
2022-11-07T01:52:26.918Z,7.13
2022-11-07T01:55:01.040Z,7.68
2022-11-07T01:57:31.741Z,7.97
2022-11-07T02:00:00.803Z,6.93
2022-11-07T02:02:28.238Z,7.38
2022-11-07T02:04:59.055Z,8.10
2022-11-07T02:07:25.767Z,7.90
2022-11-07T02:09:53.627Z,7.43
2022-11-07T02:12:21.257Z,7.32
2022-11-07T02:14:47.956Z,5.90
2022-11-07T02:17:15.252Z,7.00
2022-11-07T02:19:56.802Z,6.75
2022-11-07T02:22:29.287Z,7.45
2022-11-07T02:24:58.852Z,6.43
2022-11-07T02:27:27.608Z,5.93
2022-11-07T02:29:59.417Z,7.03
2022-11-07T02:32:26.031Z,7.35
2022-11-07T02:34:57.495Z,7.10
2022-11-07T02:37:30.335Z,7.47
2022-11-07T02:39:59.154Z,6.72
2022-11-07T02:42:27.050Z,6.28
2022-11-07T02:44:54.168Z,6.45
2022-11-07T02:47:20.704Z,6.57
2022-11-07T02:49:47.239Z,6.50
2022-11-07T02:52:14.218Z,6.80
2022-11-07T02:54:40.822Z,7.40
2022-11-07T02:57:07.435Z,6.60
2022-11-07T02:59:34.129Z,6.15
2022-11-07T03:02:00.744Z,7.05
2022-11-07T03:04:27.294Z,6.07
2022-11-07T03:06:53.921Z,6.57
2022-11-07T03:09:20.584Z,6.68
2022-11-07T03:11:47.122Z,6.25
2022-11-07T03:14:13.715Z,6.72
2022-11-07T03:16:40.254Z,6.30
2022-11-07T03:19:06.788Z,6.30
2022-11-07T03:21:33.403Z,5.78
2022-11-07T03:24:00.006Z,6.35
2022-11-07T03:26:26.680Z,6.38
2022-11-07T03:28:53.387Z,5.70
2022-11-07T03:31:19.922Z,6.65
2022-11-07T03:33:46.573Z,6.93
2022-11-07T03:36:13.296Z,6.18
2022-11-07T03:38:39.862Z,6.55
2022-11-07T03:41:06.349Z,6.50
2022-11-07T03:43:32.866Z,6.40
2022-11-07T03:45:59.398Z,6.25
2022-11-07T03:48:25.903Z,6.70
2022-11-07T03:50:55.133Z,6.13
2022-11-07T03:53:25.433Z,6.35
2022-11-07T03:55:55.034Z,6.25
2022-11-07T03:58:21.772Z,5.75
2022-11-07T04:00:48.306Z,5.93
2022-11-07T04:03:15.213Z,5.35
2022-11-07T04:05:42.028Z,5.22
2022-11-07T04:08:08.707Z,5.30
2022-11-07T04:10:35.308Z,5.95
2022-11-07T04:13:20.496Z,6.00
2022-11-07T04:16:05.817Z,5.70
2022-11-07T04:18:32.334Z,5.50
2022-11-07T04:20:58.969Z,5.85
2022-11-07T04:23:25.607Z,5.45
2022-11-07T04:26:10.821Z,6.25
2022-11-07T04:28:37.420Z,5.88
2022-11-07T04:31:04.093Z,5.97
2022-11-07T04:33:30.729Z,6.25
2022-11-07T04:35:57.263Z,6.28
2022-11-07T04:38:23.934Z,6.30
2022-11-07T04:40:55.460Z,5.70
2022-11-07T04:43:23.285Z,5.55
2022-11-07T04:45:49.985Z,6.03
2022-11-07T04:48:16.819Z,5.35
2022-11-07T04:50:44.593Z,5.28
2022-11-07T04:53:16.244Z,5.63
2022-11-07T04:55:43.208Z,5.40
2022-11-07T04:58:10.318Z,4.60
2022-11-07T05:00:37.607Z,4.30
2022-11-07T05:03:04.602Z,4.93
2022-11-07T05:05:31.661Z,5.28
2022-11-07T05:07:58.299Z,4.53
2022-11-07T05:10:27.902Z,4.90
2022-11-07T05:12:55.189Z,4.60
2022-11-07T05:15:21.760Z,5.03
2022-11-07T05:17:48.754Z,4.35
2022-11-07T05:20:35.788Z,4.43
2022-11-07T05:23:16.190Z,4.15
2022-11-07T05:25:48.119Z,4.07
2022-11-07T05:28:18.469Z,3.70
2022-11-07T05:30:47.002Z,3.95
2022-11-07T05:33:16.170Z,4.25
2022-11-07T05:35:43.562Z,3.80
2022-11-07T05:38:10.584Z,4.60
2022-11-07T05:40:38.755Z,4.03
2022-11-07T05:43:07.237Z,4.00
2022-11-07T05:45:37.673Z,3.92
2022-11-07T05:48:06.800Z,4.03
2022-11-07T05:50:33.904Z,4.03
2022-11-07T05:53:00.839Z,3.97
2022-11-07T05:55:28.015Z,3.55
2022-11-07T05:57:55.971Z,3.60
2022-11-07T06:00:22.709Z,3.70
2022-11-07T06:03:00.761Z,3.83
2022-11-07T06:05:28.177Z,3.17
2022-11-07T06:07:54.917Z,3.70
2022-11-07T06:10:22.727Z,3.38
2022-11-07T06:12:58.648Z,3.47
2022-11-07T06:15:26.040Z,3.50
2022-11-07T06:17:52.829Z,3.28
2022-11-07T06:20:19.574Z,2.80
2022-11-07T06:22:46.309Z,3.42
2022-11-07T06:25:13.059Z,3.40
2022-11-07T06:27:39.692Z,3.60
2022-11-07T06:30:07.067Z,3.33
2022-11-07T06:32:33.784Z,3.50
2022-11-07T06:35:00.633Z,3.45
2022-11-07T06:37:27.467Z,3.13
2022-11-07T06:39:54.147Z,3.13
2022-11-07T06:42:20.843Z,3.05
2022-11-07T06:44:47.483Z,3.20
2022-11-07T06:47:14.027Z,2.88
2022-11-07T06:49:40.568Z,2.88
2022-11-07T06:52:07.422Z,2.80
2022-11-07T06:54:34.033Z,2.80
2022-11-07T06:57:00.631Z,2.58
2022-11-07T06:59:27.512Z,3.20
2022-11-07T07:01:54.136Z,2.38
2022-11-07T07:04:20.861Z,2.60
2022-11-07T07:06:47.486Z,2.72
2022-11-07T07:09:14.170Z,2.65
2022-11-07T07:11:42.854Z,2.72
2022-11-07T07:14:11.830Z,2.80
2022-11-07T07:16:38.752Z,2.28
2022-11-07T07:19:05.432Z,2.60
2022-11-07T07:21:33.676Z,3.85
2022-11-07T07:24:00.257Z,2.75
2022-11-07T07:26:26.948Z,2.40
2022-11-07T07:28:53.626Z,2.65
2022-11-07T07:31:25.018Z,2.67
2022-11-07T07:33:51.715Z,2.40
2022-11-07T07:36:21.208Z,2.20
2022-11-07T07:38:49.005Z,2.60
2022-11-07T07:41:15.731Z,2.42
2022-11-07T07:43:42.396Z,2.05
2022-11-07T07:46:11.146Z,2.28
2022-11-07T07:48:37.799Z,2.15
2022-11-07T07:51:04.528Z,2.20
2022-11-07T07:53:31.173Z,2.33
2022-11-07T07:55:58.771Z,2.50
2022-11-07T07:58:28.941Z,2.13
2022-11-07T08:00:58.088Z,2.17
2022-11-07T08:03:29.329Z,2.58
2022-11-07T08:06:02.376Z,1.88
2022-11-07T08:08:31.502Z,1.98
2022-11-07T08:11:04.046Z,2.65
2022-11-07T08:13:31.202Z,2.30
2022-11-07T08:15:58.156Z,1.80
2022-11-07T08:18:25.603Z,2.35
2022-11-07T08:20:54.801Z,2.40
2022-11-07T08:23:22.547Z,2.42
2022-11-07T08:25:59.778Z,2.20
2022-11-07T08:28:28.333Z,2.22
2022-11-07T08:30:56.762Z,1.98
2022-11-07T08:33:23.828Z,1.48
2022-11-07T08:35:51.216Z,1.67
2022-11-07T08:38:17.854Z,1.65
2022-11-07T08:40:44.595Z,2.05
2022-11-07T08:43:11.230Z,1.65
2022-11-07T08:45:37.970Z,1.70
2022-11-07T08:48:05.261Z,1.90
2022-11-07T08:50:32.061Z,1.65
2022-11-07T08:53:03.018Z,1.65
2022-11-07T08:55:30.456Z,1.40
2022-11-07T08:58:01.952Z,1.20
2022-11-07T09:00:29.160Z,2.00
2022-11-07T09:05:42.507Z,1.48
2022-11-07T09:08:09.280Z,1.63
2022-11-07T09:10:36.092Z,1.60
2022-11-07T09:13:02.747Z,2.92
2022-11-07T09:15:29.878Z,1.58
2022-11-07T09:17:56.619Z,1.83
2022-11-07T09:20:23.261Z,1.40
2022-11-07T09:22:50.205Z,1.70
2022-11-07T09:25:17.037Z,1.38
2022-11-07T09:27:43.780Z,1.45
2022-11-07T09:30:11.137Z,1.67
2022-11-07T09:32:44.957Z,1.45
2022-11-07T09:35:14.196Z,2.05
2022-11-07T09:37:41.480Z,1.25
2022-11-07T09:40:40.770Z,1.17
2022-11-07T09:43:25.908Z,1.95
2022-11-07T09:45:55.378Z,1.50
2022-11-07T09:48:24.789Z,1.13
2022-11-07T09:50:51.918Z,1.35
2022-11-07T09:53:26.149Z,1.45
2022-11-07T09:55:55.246Z,1.88
2022-11-07T09:58:38.251Z,1.23
2022-11-07T10:01:12.453Z,1.58
2022-11-07T10:03:43.179Z,1.10
2022-11-07T10:06:25.348Z,1.08
2022-11-07T10:08:51.955Z,1.13
2022-11-07T10:11:34.655Z,1.50
2022-11-07T10:14:20.005Z,1.42
2022-11-07T10:17:25.553Z,1.40
2022-11-07T10:20:19.219Z,1.20
2022-11-07T10:23:19.651Z,1.55
2022-11-07T10:25:55.412Z,1.20
2022-11-07T10:28:22.504Z,1.23
2022-11-07T10:30:52.902Z,1.30
2022-11-07T10:33:34.979Z,1.40
2022-11-07T10:36:28.803Z,1.65
2022-11-07T10:38:57.227Z,1.40
2022-11-07T10:41:28.340Z,1.20
2022-11-07T10:44:05.278Z,1.50
2022-11-07T10:46:51.699Z,1.27
2022-11-07T10:49:24.335Z,1.33
2022-11-07T10:51:51.715Z,1.38
2022-11-07T10:54:25.340Z,1.25
2022-11-07T10:57:10.478Z,1.48
2022-11-07T10:59:41.891Z,1.23
2022-11-07T11:02:29.771Z,1.20
2022-11-07T11:05:02.679Z,1.60
2022-11-07T11:07:38.342Z,1.50
2022-11-07T11:10:19.081Z,1.55
2022-11-07T11:12:47.385Z,1.10
2022-11-07T11:15:22.185Z,1.50
2022-11-07T11:18:01.497Z,2.13
2022-11-07T11:20:35.878Z,2.20
2022-11-07T11:23:04.899Z,1.30
2022-11-07T11:25:31.614Z,2.28
2022-11-07T11:28:09.989Z,1.30
2022-11-07T11:30:37.035Z,1.52
2022-11-07T11:33:07.742Z,1.35
2022-11-07T11:35:41.858Z,1.73
2022-11-07T11:38:29.842Z,1.70
2022-11-07T11:41:05.944Z,1.17
2022-11-07T11:43:43.945Z,1.25
2022-11-07T11:46:36.465Z,1.40
2022-11-07T11:49:16.955Z,1.90
2022-11-07T11:51:48.872Z,1.70
2022-11-07T11:54:16.132Z,1.70
2022-11-07T11:57:02.330Z,1.45
2022-11-07T12:00:01.094Z,1.30
2022-11-07T12:02:43.010Z,1.75
2022-11-07T12:05:15.201Z,1.63
2022-11-07T12:08:02.065Z,1.65
2022-11-07T12:11:00.884Z,1.88
2022-11-07T12:13:36.427Z,1.17
2022-11-07T12:16:21.396Z,1.40
2022-11-07T12:19:12.990Z,2.22
2022-11-07T12:22:18.098Z,1.40
2022-11-07T12:25:02.396Z,1.25
2022-11-07T12:27:38.475Z,1.38
2022-11-07T12:30:36.554Z,1.40
2022-11-07T12:33:15.350Z,2.72
2022-11-07T12:36:06.626Z,1.45
2022-11-07T12:38:48.351Z,1.85
2022-11-07T12:41:36.831Z,2.75
2022-11-07T12:44:23.149Z,1.73
2022-11-07T12:46:58.899Z,2.30
2022-11-07T12:49:37.595Z,1.45
2022-11-07T12:52:23.393Z,1.40
2022-11-07T12:54:59.065Z,1.30
2022-11-07T12:57:27.658Z,1.77
2022-11-07T13:00:15.780Z,1.42
2022-11-07T13:02:53.134Z,1.63
2022-11-07T13:05:34.565Z,1.17
2022-11-07T13:08:34.721Z,1.13
2022-11-07T13:11:22.129Z,1.40
2022-11-07T13:14:00.572Z,1.60
2022-11-07T13:16:33.758Z,1.38
2022-11-07T13:19:29.379Z,1.40
2022-11-07T13:22:01.187Z,1.77
2022-11-07T13:24:27.850Z,1.65
2022-11-07T13:26:54.426Z,1.25
2022-11-07T13:29:37.950Z,3.33
2022-11-07T13:32:11.343Z,1.80
2022-11-07T13:34:45.301Z,1.58
2022-11-07T13:37:27.502Z,1.52
2022-11-07T13:40:01.115Z,1.95
2022-11-07T13:42:30.617Z,1.80
2022-11-07T13:44:58.585Z,1.63
2022-11-07T13:47:31.710Z,3.65
2022-11-07T13:50:17.513Z,2.00
2022-11-07T13:52:59.559Z,1.95
2022-11-07T13:56:01.728Z,1.75
2022-11-07T13:58:30.416Z,2.03
2022-11-07T14:01:04.476Z,1.52
2022-11-07T14:03:31.164Z,1.75
2022-11-07T14:05:58.106Z,1.73
2022-11-07T14:08:30.416Z,1.27
2022-11-07T14:10:57.384Z,1.67
2022-11-07T14:13:30.726Z,1.10
2022-11-07T14:16:03.511Z,1.15
2022-11-07T14:18:34.507Z,1.65
2022-11-07T14:21:01.598Z,1.90
2022-11-07T14:23:30.589Z,1.20
2022-11-07T14:26:06.957Z,2.10
2022-11-07T14:28:38.800Z,1.50
2022-11-07T14:31:08.131Z,1.70
2022-11-07T14:33:35.028Z,1.92
2022-11-07T14:36:06.617Z,1.85
2022-11-07T14:38:33.250Z,1.33
2022-11-07T14:41:01.331Z,1.33
2022-11-07T14:43:28.507Z,1.80
2022-11-07T14:46:13.283Z,2.00
2022-11-07T14:48:41.815Z,1.63
2022-11-07T14:51:13.340Z,1.73
2022-11-07T14:54:05.847Z,1.98
2022-11-07T14:56:38.941Z,1.50
2022-11-07T14:59:11.374Z,1.70
2022-11-07T15:01:38.102Z,1.50
2022-11-07T15:04:28.096Z,1.80
2022-11-07T15:06:54.743Z,1.40
2022-11-07T15:09:31.202Z,1.50
2022-11-07T15:11:59.484Z,1.08
2022-11-07T15:14:34.717Z,1.42
2022-11-07T15:17:04.429Z,1.35
2022-11-07T15:19:33.052Z,1.17
2022-11-07T15:22:04.198Z,1.20
2022-11-07T15:24:45.067Z,1.58
2022-11-07T15:27:14.336Z,1.33
2022-11-07T15:29:50.179Z,1.02
2022-11-07T15:32:19.842Z,1.70
2022-11-07T15:37:36.407Z,1.10
2022-11-07T15:40:15.231Z,1.27
2022-11-07T15:42:41.805Z,1.75
2022-11-07T15:45:08.761Z,2.22
2022-11-07T15:47:35.328Z,1.92
2022-11-07T15:50:02.294Z,2.35
2022-11-07T15:52:29.127Z,2.45
2022-11-07T15:54:55.731Z,2.03
2022-11-07T15:57:22.331Z,2.35
2022-11-07T15:59:49.156Z,1.42
2022-11-07T16:02:17.608Z,2.40
2022-11-07T16:04:44.587Z,1.30
2022-11-07T16:07:17.062Z,1.50
2022-11-07T16:09:43.780Z,1.73
2022-11-07T16:12:13.923Z,1.00
2022-11-07T16:14:44.839Z,1.70
2022-11-07T16:17:19.245Z,1.83
2022-11-07T16:19:46.465Z,2.25
2022-11-07T16:22:14.605Z,2.00
2022-11-07T16:24:41.249Z,1.85
2022-11-07T16:27:08.086Z,2.50
2022-11-07T16:29:34.703Z,3.17
2022-11-07T16:32:01.621Z,2.95
2022-11-07T16:34:28.289Z,1.98
2022-11-07T16:36:54.811Z,1.92
2022-11-07T16:39:23.429Z,2.80
2022-11-07T16:41:50.588Z,1.80
2022-11-07T16:44:21.582Z,2.45
2022-11-07T16:46:51.475Z,1.90
2022-11-07T16:49:30.750Z,2.78
2022-11-07T16:51:57.890Z,2.08
2022-11-07T16:54:24.553Z,1.48
2022-11-07T16:56:51.507Z,1.20
2022-11-07T16:59:19.963Z,1.42
2022-11-07T17:01:47.191Z,1.52
2022-11-07T17:04:14.084Z,1.27
2022-11-07T17:06:47.026Z,1.38
2022-11-07T17:09:20.588Z,2.10
2022-11-07T17:11:47.404Z,3.47
2022-11-07T17:14:14.112Z,2.92
2022-11-07T17:16:42.857Z,1.40
2022-11-07T17:19:12.202Z,1.80
2022-11-07T17:21:43.917Z,2.45
2022-11-07T17:24:10.691Z,2.00
2022-11-07T17:26:38.958Z,2.63
2022-11-07T17:29:07.458Z,2.45
2022-11-07T17:31:34.491Z,2.58
2022-11-07T17:34:01.173Z,2.83
2022-11-07T17:36:35.268Z,2.45
2022-11-07T17:39:23.869Z,1.90
2022-11-07T17:41:51.153Z,2.38
2022-11-07T17:44:18.547Z,1.90
2022-11-07T17:46:47.393Z,2.78
2022-11-07T17:49:16.906Z,2.03
2022-11-07T17:51:43.893Z,2.38
2022-11-07T17:54:12.583Z,2.72
2022-11-07T17:56:39.521Z,2.00
2022-11-07T17:59:08.257Z,2.03
2022-11-07T18:01:37.447Z,2.15
2022-11-07T18:04:05.693Z,2.15
2022-11-07T18:06:37.421Z,1.88
2022-11-07T18:09:06.057Z,1.73
2022-11-07T18:11:35.176Z,2.47
2022-11-07T18:14:02.268Z,2.15
2022-11-07T18:16:32.311Z,1.77
2022-11-07T18:18:59.741Z,2.25
2022-11-07T18:21:27.247Z,2.63
2022-11-07T18:23:54.195Z,2.40
2022-11-07T18:26:30.327Z,2.75
2022-11-07T18:29:01.655Z,3.40
2022-11-07T18:31:28.219Z,3.13
2022-11-07T18:33:58.847Z,2.90
2022-11-07T18:36:25.879Z,2.47
2022-11-07T18:38:52.503Z,3.05
2022-11-07T18:41:21.230Z,4.18
2022-11-07T18:43:47.950Z,3.78
2022-11-07T18:46:16.048Z,2.15
2022-11-07T18:48:43.100Z,1.67
2022-11-07T18:51:12.909Z,2.05
2022-11-07T18:53:39.501Z,2.13
2022-11-07T18:56:08.021Z,2.20
2022-11-07T18:58:36.268Z,2.50
2022-11-07T19:01:11.454Z,3.95
2022-11-07T19:03:38.774Z,2.35
2022-11-07T19:06:11.251Z,3.17
2022-11-07T19:08:39.622Z,2.35
2022-11-07T19:11:09.620Z,3.00
2022-11-07T19:13:40.075Z,2.90
2022-11-07T19:16:08.383Z,2.40
2022-11-07T19:18:35.113Z,1.40
2022-11-07T19:21:01.926Z,1.52
2022-11-07T19:23:28.534Z,1.80
2022-11-07T19:25:55.607Z,1.80
2022-11-07T19:28:22.453Z,1.77
2022-11-07T19:30:49.317Z,2.60
2022-11-07T19:33:16.599Z,2.85
2022-11-07T19:35:43.527Z,2.65
2022-11-07T19:38:11.800Z,2.67
2022-11-07T19:40:38.429Z,2.17
2022-11-07T19:43:05.623Z,2.10
2022-11-07T19:45:32.333Z,1.38
2022-11-07T19:47:58.952Z,1.85
2022-11-07T19:50:25.798Z,1.50
2022-11-07T19:52:52.530Z,2.00
2022-11-07T19:55:22.781Z,1.63
2022-11-07T19:57:50.310Z,2.00
2022-11-07T20:00:17.460Z,2.03
2022-11-07T20:02:47.997Z,1.85
2022-11-07T20:05:24.206Z,2.22
2022-11-07T20:07:54.799Z,2.15
2022-11-07T20:10:23.796Z,2.00
2022-11-07T20:12:51.239Z,2.15
2022-11-07T20:15:18.489Z,2.30
2022-11-07T20:17:45.255Z,1.95
2022-11-07T20:20:13.709Z,2.08
2022-11-07T20:22:46.371Z,1.58
2022-11-07T20:25:13.747Z,2.08
2022-11-07T20:27:40.701Z,1.77
2022-11-07T20:30:08.146Z,1.70
2022-11-07T20:32:34.783Z,1.60
2022-11-07T20:35:01.526Z,2.10
2022-11-07T20:37:28.075Z,1.27
2022-11-07T20:39:54.620Z,1.52
2022-11-07T20:42:21.352Z,1.40
2022-11-07T20:44:49.506Z,1.80
2022-11-07T20:47:16.250Z,1.23
2022-11-07T20:49:42.984Z,1.73
2022-11-07T20:52:09.890Z,1.75
2022-11-07T20:54:37.097Z,1.80
2022-11-07T20:57:03.832Z,1.20
2022-11-07T20:59:31.690Z,1.55
2022-11-07T21:02:03.259Z,1.73
2022-11-07T21:04:49.785Z,1.95
2022-11-07T21:07:19.901Z,2.05
2022-11-07T21:09:46.970Z,1.63
2022-11-07T21:12:13.671Z,1.35
2022-11-07T21:14:42.355Z,1.63
2022-11-07T21:17:09.999Z,1.40
2022-11-07T21:19:36.769Z,1.70
2022-11-07T21:22:04.427Z,1.50
2022-11-07T21:24:31.989Z,1.60
2022-11-07T21:26:59.008Z,1.73
2022-11-07T21:29:29.543Z,1.98
2022-11-07T21:31:56.931Z,1.45
2022-11-07T21:34:23.490Z,1.35
2022-11-07T21:36:50.069Z,2.03
2022-11-07T21:39:17.531Z,1.60
2022-11-07T21:41:44.160Z,1.55
2022-11-07T21:44:12.175Z,1.67
2022-11-07T21:46:38.988Z,1.63
2022-11-07T21:49:06.486Z,1.83
2022-11-07T21:51:34.517Z,1.63
2022-11-07T21:54:02.722Z,1.73
2022-11-07T21:56:32.039Z,1.80
2022-11-07T21:59:01.496Z,1.40
2022-11-07T22:01:29.490Z,1.50
2022-11-07T22:04:06.933Z,1.70
2022-11-07T22:06:36.642Z,1.73
2022-11-07T22:09:04.066Z,1.60
2022-11-07T22:11:30.661Z,1.50
2022-11-07T22:13:57.277Z,1.67
2022-11-07T22:16:24.114Z,1.38
2022-11-07T22:18:50.975Z,1.88
2022-11-07T22:21:20.479Z,1.73
2022-11-07T22:23:47.124Z,1.65
2022-11-07T22:26:21.848Z,1.70
2022-11-07T22:28:48.780Z,1.58
2022-11-07T22:31:17.987Z,2.00
2022-11-07T22:33:44.726Z,1.90
2022-11-07T22:36:12.409Z,1.55
2022-11-07T22:38:40.159Z,1.63
2022-11-07T22:41:12.822Z,1.70
2022-11-07T22:43:39.665Z,1.75
2022-11-07T22:46:08.420Z,2.08
2022-11-07T22:48:35.206Z,1.80
2022-11-07T22:51:06.336Z,1.88
2022-11-07T22:53:33.317Z,1.45
2022-11-07T22:56:07.107Z,1.58
2022-11-07T22:58:33.720Z,1.60
2022-11-07T23:01:00.407Z,2.03
2022-11-07T23:03:27.307Z,1.50
2022-11-07T23:05:53.980Z,2.63
2022-11-07T23:08:20.776Z,1.42
2022-11-07T23:11:14.382Z,1.45
2022-11-07T23:13:45.816Z,1.38
2022-11-07T23:16:26.512Z,1.35
2022-11-07T23:18:57.939Z,1.58
2022-11-07T23:21:25.596Z,2.05
2022-11-07T23:23:56.430Z,1.90
2022-11-07T23:26:23.788Z,1.83
2022-11-07T23:28:51.036Z,1.38
2022-11-07T23:31:18.392Z,1.83
2022-11-07T23:33:48.099Z,2.10
2022-11-07T23:36:16.170Z,1.30
2022-11-07T23:38:43.988Z,1.42
2022-11-07T23:41:13.453Z,1.98
2022-11-07T23:43:40.184Z,1.75
2022-11-07T23:46:25.964Z,1.77
2022-11-07T23:49:14.581Z,1.73
2022-11-07T23:51:42.194Z,1.80
2022-11-07T23:54:27.475Z,1.60
2022-11-07T23:56:54.500Z,1.90
2022-11-07T23:59:39.746Z,2.03
